Terminal Aerodrome Forecast
Issued by NWS

Home | Current Version | Previous Version | Text Only | Print | Product List | Glossary On
Versions: 1 2 3 4 5 6 7 8 9 10 11 12 13 14 15 16 17 18 19 20 21 22 23 24 25 26 27 28 29 30 31 32
000
FTUS43 KGLD 181507 AAA
TAFMCK
TAF AMD
KMCK 181507Z 1815/1912 03006KT 5SM -SHRA BR OVC009
     FM181700 03010KT P6SM -SHRA VCTS SCT009 OVC015CB
     FM182000 06011KT 6SM -SHRA BR OVC030
     FM190200 03009KT P6SM BKN015
     FM190800 36006KT P6SM OVC008=

USA.gov is the U.S. government's official web portal to all federal, state and local government web resources and services.